Currently 50°F in Hemet, California, USA
50°F
70°F / 42°F
calm
0.00"
Friday, January 27, 2023 7:52 PM PST

Hemet, California Weather Summary
Last 36 Hours

Temperature Winds Hourly Humidity Dewpoint
Time Report Norm Report Norm Max Gusts Precip. Rpt. Norm Rpt. Norm Pressure
1Fri 07:52 PM  50.4°F  52°F  calm  1 mph  none  0.00"  37%  51%  24°F  34°F  30.04"
Fri 07:00 PM  52.9°F  54°F  calm  1 mph  2 mph  0.00"  34%  49%  24°F  34°F  30.04"
Fri 06:00 PM  56.9°F  56°F  calm  1 mph  none  0.00"  28%  47%  23°F  35°F  30.04"
Fri 05:00 PM  64.2°F  60°F  calm  1 mph  1 mph  0.00"  25%  41%  26°F  36°F  30.03"
Fri 04:00 PM  69.4°F  63°F  calm  1 mph  1 mph  0.00"  18%  36%  22°F  35°F  30.04"
2Fri 03:09 PM  69.9°F  64°F  calm  2 mph  none  ----  18%  35%  23°F  35°F  30.04"
Fri 03:00 PM  68.9°F  64°F  calm  2 mph  2 mph  0.00"  19%  35%  23°F  35°F  30.05"
Fri 02:00 PM  66.8°F  64°F  calm  2 mph  3 mph  0.00"  19%  36%  21°F  35°F  30.07"
Fri 01:00 PM  65.8°F  63°F  calm  2 mph  3 mph  0.00"  18%  37%  19°F  35°F  30.10"
Fri 12:00 PM  63.2°F  61°F  calm  1 mph  3 mph  0.00"  16%  39%  14°F  36°F  30.15"
Fri 11:00 AM  61.3°F  59°F  calm  1 mph  2 mph  0.00"  19%  42%  17°F  36°F  30.20"
Fri 10:00 AM  60.4°F  57°F  calm  1 mph  none  0.00"  22%  46%  20°F  35°F  30.23"
Fri 09:00 AM  55.3°F  54°F  calm  calm  none  0.00"  24%  48%  17°F  34°F  30.25"
Fri 08:00 AM  44.8°F  50°F  calm  calm  none  0.00"  33%  51%  16°F  32°F  30.25"
Fri 07:00 AM  43.2°F  47°F  calm  1 mph  none  0.00"  31%  53%  13°F  30°F  30.27"
Fri 06:00 AM  44.1°F  47°F  calm  1 mph  1 mph  0.00"  30%  52%  13°F  30°F  30.26"
3Fri 05:03 AM  41.9°F  48°F  calm  calm  1 mph  ----  34%  52%  14°F  30°F  30.27"
Fri 05:00 AM  42.1°F  48°F  calm  1 mph  1 mph  0.00"  34%  52%  14°F  30°F  30.27"
Fri 04:00 AM  43.1°F  48°F  calm  1 mph  none  0.00"  29%  53%  12°F  31°F  30.28"
Fri 03:00 AM  44.3°F  48°F  calm  1 mph  1 mph  0.00"  27%  53%  11°F  31°F  30.29"
Fri 02:00 AM  44.1°F  49°F  calm  1 mph  2 mph  0.00"  30%  53%  13°F  31°F  30.31"
Fri 01:00 AM  45.2°F  49°F  calm  1 mph  1 mph  0.00"  27%  52%  12°F  32°F  30.32"
Fri 12:01 AM  45.4°F  49°F  calm  1 mph  1 mph  0.00"  28%  53%  13°F  32°F  30.33"
Thu 11:00 PM  45.5°F  50°F  calm  1 mph  1 mph  0.00"  30%  53%  14°F  32°F  30.35"
Thu 10:00 PM  47.9°F  50°F  calm  1 mph  1 mph  0.00"  25%  53%  12°F  33°F  30.35"
Thu 09:00 PM  46.2°F  51°F  calm  1 mph  none  0.00"  27%  52%  12°F  33°F  30.33"
Thu 08:00 PM  49.4°F  52°F  calm  1 mph  1 mph  0.00"  25%  51%  13°F  33°F  30.33"
Thu 07:00 PM  51.1°F  53°F  calm  1 mph  1 mph  0.00"  23%  50%  13°F  34°F  30.34"
Thu 06:00 PM  54.2°F  55°F  calm  1 mph  8 mph  0.00"  19%  47%  11°F  35°F  30.33"
Thu 05:00 PM  58.4°F  60°F  3 mph SE  1 mph  13 mph  0.00"  18%  42%  13°F  35°F  30.30"
Thu 04:00 PM  63.5°F  63°F  1 mph S  1 mph  8 mph  0.00"  14%  37%  11°F  35°F  30.28"
Thu 03:00 PM  64.3°F  64°F  calm  2 mph  6 mph  0.00"  14%  36%  12°F  35°F  30.28"
Thu 02:00 PM  64.0°F  64°F  calm  2 mph  7 mph  0.00"  14%  36%  12°F  35°F  30.29"
Thu 01:00 PM  63.1°F  63°F  calm  2 mph  12 mph  0.00"  15%  37%  13°F  35°F  30.30"
Thu 12:00 PM  61.8°F  61°F  calm  1 mph  9 mph  0.00"  18%  40%  16°F  35°F  30.35"
Thu 11:00 AM  61.2°F  59°F  calm  1 mph  12 mph  0.00"  15%  43%  11°F  36°F  30.38"
Thu 10:00 AM  59.8°F  57°F  calm  1 mph  12 mph  0.00"  17%  46%  13°F  36°F  30.39"
Thu 09:00 AM  55.4°F  54°F  1 mph N  calm  10 mph  0.00"  20%  49%  13°F  35°F  30.36"
Thu 08:00 AM  51.4°F  50°F  2 mph SW  calm  15 mph  0.00"  24%  52%  14°F  32°F  30.33"

  1. Current weather data. No green row appears if the current weather data is also the high or low for the current day.
  2. High temperature for the current day.
  3. Low temperature for the current day.

The Hemet weather pages are a service of WeatherCurrents. Hemet, California is located in the San Jacinto Valley, in western Riverside County, at the foot of the San Jacinto mountains.
Copyright ©2023  WeatherCurrents. All rights reserved. - Submit questions and comments - Privacy Policy

This page automatically refreshes every 10 minutes.